CSA193 LKKV-LKPR
Flight info
| Callsign | CSA193 |
|---|---|
| Flight time | N/A |
| Altitude | 8000 |
| Route | LOMKI |
| Aircraft | A20N/M-SDE2E3FGHIRWXY/LB1 |
Departure
| Time | 2026-04-25 10:47 |
|---|---|
| Airport | Karlovy Vary Airport (LKKV) |
Arrival
| Time | N/A |
|---|---|
| Airport | Václav Havel Airport Prague (LKPR) |
| Time | Latitude | Longitude | Altitude | Speed | Heading |
|---|---|---|---|---|---|
| 2026-04-25 10:40 | 50.20256 | 12.91184 | 1991 ft | 0 kts | 10° |
| 2026-04-25 10:41 | 50.20257 | 12.91184 | 1991 ft | 0 kts | 10° |
| 2026-04-25 10:41 | 50.20277 | 12.91198 | 1990 ft | 6 kts | 22° |
| 2026-04-25 10:41 | 50.20334 | 12.91234 | 1992 ft | 11 kts | 22° |
| 2026-04-25 10:42 | 50.20367 | 12.91259 | 1994 ft | 2 kts | 35° |
| 2026-04-25 10:42 | 50.20367 | 12.91280 | 1992 ft | 4 kts | 97° |
| 2026-04-25 10:42 | 50.20350 | 12.91356 | 1992 ft | 11 kts | 112° |
| 2026-04-25 10:42 | 50.20311 | 12.91500 | 1992 ft | 17 kts | 112° |
| 2026-04-25 10:43 | 50.20258 | 12.91700 | 1990 ft | 23 kts | 112° |
| 2026-04-25 10:43 | 50.20200 | 12.91916 | 1991 ft | 17 kts | 114° |
| 2026-04-25 10:43 | 50.20151 | 12.92102 | 1990 ft | 21 kts | 116° |
| 2026-04-25 10:43 | 50.20088 | 12.92311 | 1989 ft | 21 kts | 113° |
| 2026-04-25 10:44 | 50.20026 | 12.92539 | 1991 ft | 24 kts | 114° |
| 2026-04-25 10:44 | 50.19971 | 12.92741 | 1989 ft | 0 kts | 112° |
| 2026-04-25 10:44 | 50.19961 | 12.92777 | 1989 ft | 8 kts | 113° |
| 2026-04-25 10:44 | 50.19938 | 12.92821 | 1990 ft | 1 kts | 140° |
| 2026-04-25 10:45 | 50.19916 | 12.92855 | 1990 ft | 7 kts | 116° |
| 2026-04-25 10:45 | 50.19938 | 12.92873 | 1990 ft | 5 kts | 314° |
| 2026-04-25 10:45 | 50.19954 | 12.92804 | 1989 ft | 7 kts | 293° |
| 2026-04-25 10:45 | 50.19955 | 12.92801 | 1989 ft | 0 kts | 293° |
| 2026-04-25 10:46 | 50.20116 | 12.92213 | 1990 ft | 118 kts | 292° |
| 2026-04-25 10:46 | 50.20522 | 12.90692 | 2523 ft | 159 kts | 292° |
| 2026-04-25 10:47 | 50.20946 | 12.89115 | 3853 ft | 163 kts | 291° |
| 2026-04-25 10:47 | 50.21433 | 12.87255 | 4468 ft | 208 kts | 292° |
| 2026-04-25 10:47 | 50.22020 | 12.85133 | 5248 ft | 214 kts | 294° |
| 2026-04-25 10:47 | 50.22662 | 12.82842 | 5410 ft | 246 kts | 293° |
| 2026-04-25 10:48 | 50.23104 | 12.80235 | 5043 ft | 250 kts | 270° |
| 2026-04-25 10:48 | 50.22685 | 12.77675 | 4926 ft | 241 kts | 240° |
| 2026-04-25 10:48 | 50.21516 | 12.75780 | 4960 ft | 250 kts | 211° |
| 2026-04-25 10:48 | 50.19824 | 12.75061 | 5405 ft | 254 kts | 179° |
| 2026-04-25 10:49 | 50.18147 | 12.75795 | 6416 ft | 258 kts | 152° |
| 2026-04-25 10:49 | 50.17103 | 12.76727 | 6966 ft | 256 kts | 149° |
| 2026-04-25 10:49 | 50.15058 | 12.78635 | 7569 ft | 259 kts | 149° |
| 2026-04-25 10:49 | 50.13662 | 12.80425 | 7821 ft | 261 kts | 130° |
| 2026-04-25 10:50 | 50.12752 | 12.82873 | 7974 ft | 263 kts | 112° |
| 2026-04-25 10:50 | 50.12022 | 12.85632 | 8004 ft | 284 kts | 112° |
| 2026-04-25 10:50 | 50.11258 | 12.88482 | 8007 ft | 284 kts | 112° |
| 2026-04-25 10:50 | 50.10483 | 12.91332 | 8007 ft | 285 kts | 113° |
| 2026-04-25 10:51 | 50.09703 | 12.94182 | 8008 ft | 285 kts | 113° |
| 2026-04-25 10:51 | 50.08933 | 12.96982 | 8008 ft | 285 kts | 113° |
| 2026-04-25 10:51 | 50.08006 | 12.99694 | 8010 ft | 285 kts | 124° |
| 2026-04-25 10:51 | 50.06712 | 13.02013 | 8006 ft | 284 kts | 138° |
| 2026-04-25 10:52 | 50.05233 | 13.04057 | 8006 ft | 284 kts | 139° |
| 2026-04-25 10:52 | 50.03761 | 13.06109 | 8009 ft | 285 kts | 138° |
| 2026-04-25 10:52 | 50.02292 | 13.08172 | 8006 ft | 284 kts | 138° |
| 2026-04-25 10:52 | 50.00825 | 13.10235 | 8005 ft | 284 kts | 138° |
| 2026-04-25 10:53 | 49.99378 | 13.12271 | 8010 ft | 284 kts | 138° |
| 2026-04-25 10:53 | 49.97912 | 13.14334 | 8009 ft | 284 kts | 138° |
| 2026-04-25 10:53 | 49.96452 | 13.16388 | 8009 ft | 284 kts | 138° |
| 2026-04-25 10:53 | 49.94963 | 13.18480 | 8009 ft | 284 kts | 138° |
| 2026-04-25 10:54 | 49.93686 | 13.20756 | 8006 ft | 284 kts | 119° |
| 2026-04-25 10:54 | 49.93218 | 13.22690 | 8007 ft | 284 kts | 101° |
| 2026-04-25 10:54 | 49.93264 | 13.25732 | 8011 ft | 285 kts | 75° |
| 2026-04-25 10:54 | 49.94007 | 13.28565 | 8007 ft | 284 kts | 63° |
| 2026-04-25 10:55 | 49.94919 | 13.31293 | 8007 ft | 284 kts | 62° |
| 2026-04-25 10:55 | 49.95816 | 13.34024 | 8007 ft | 284 kts | 63° |
| 2026-04-25 10:55 | 49.96663 | 13.36790 | 8005 ft | 284 kts | 65° |
| 2026-04-25 10:55 | 49.97465 | 13.39593 | 8006 ft | 284 kts | 66° |
| 2026-04-25 10:56 | 49.98243 | 13.42413 | 8007 ft | 284 kts | 67° |
| 2026-04-25 10:56 | 49.99012 | 13.45249 | 8008 ft | 284 kts | 67° |
| 2026-04-25 10:56 | 49.99777 | 13.48079 | 8008 ft | 284 kts | 67° |
| 2026-04-25 10:56 | 50.00544 | 13.50916 | 7922 ft | 284 kts | 67° |
| 2026-04-25 10:57 | 50.01300 | 13.53710 | 7786 ft | 283 kts | 67° |
| 2026-04-25 10:57 | 50.02063 | 13.56535 | 7670 ft | 283 kts | 67° |
| 2026-04-25 10:57 | 50.02822 | 13.59349 | 7547 ft | 282 kts | 67° |
| 2026-04-25 10:57 | 50.03581 | 13.62163 | 7415 ft | 282 kts | 67° |
| 2026-04-25 10:58 | 50.04336 | 13.64967 | 7300 ft | 281 kts | 67° |
| 2026-04-25 10:58 | 50.05061 | 13.67666 | 7178 ft | 280 kts | 67° |
| 2026-04-25 10:58 | 50.05816 | 13.70469 | 7044 ft | 280 kts | 67° |
| 2026-04-25 10:58 | 50.06565 | 13.73257 | 6933 ft | 279 kts | 67° |
| 2026-04-25 10:59 | 50.07315 | 13.76054 | 6804 ft | 279 kts | 67° |
| 2026-04-25 10:59 | 50.08061 | 13.78841 | 6671 ft | 277 kts | 67° |
| 2026-04-25 10:59 | 50.08804 | 13.81616 | 6547 ft | 278 kts | 67° |
| 2026-04-25 10:59 | 50.09550 | 13.84406 | 6427 ft | 277 kts | 67° |
| 2026-04-25 11:00 | 50.10287 | 13.87172 | 6295 ft | 276 kts | 67° |
| 2026-04-25 11:00 | 50.11026 | 13.89941 | 6175 ft | 277 kts | 67° |
| 2026-04-25 11:00 | 50.11765 | 13.92712 | 6046 ft | 276 kts | 67° |
| 2026-04-25 11:00 | 50.12500 | 13.95479 | 5929 ft | 276 kts | 67° |
| 2026-04-25 11:01 | 50.13229 | 13.98228 | 5803 ft | 274 kts | 67° |
| 2026-04-25 11:01 | 50.13960 | 14.00977 | 5663 ft | 274 kts | 67° |
| 2026-04-25 11:01 | 50.14691 | 14.03725 | 5545 ft | 274 kts | 67° |
| 2026-04-25 11:01 | 50.15418 | 14.06466 | 5408 ft | 273 kts | 67° |
| 2026-04-25 11:02 | 50.16141 | 14.09203 | 5297 ft | 273 kts | 67° |
| 2026-04-25 11:02 | 50.16864 | 14.11942 | 5165 ft | 272 kts | 68° |
| 2026-04-25 11:02 | 50.17583 | 14.14677 | 5049 ft | 272 kts | 68° |
| 2026-04-25 11:02 | 50.18302 | 14.17402 | 4961 ft | 270 kts | 68° |
| 2026-04-25 11:03 | 50.19018 | 14.20119 | 4950 ft | 271 kts | 68° |
| 2026-04-25 11:03 | 50.19736 | 14.22844 | 4951 ft | 271 kts | 68° |
| 2026-04-25 11:03 | 50.20451 | 14.25566 | 4952 ft | 271 kts | 68° |